createdAt,value
2022-12-24T00:01:46.296Z,1.27
2022-12-24T00:04:48.193Z,1.37
2022-12-24T00:07:50.335Z,1.10
2022-12-24T00:10:53.467Z,6.17
2022-12-24T00:13:55.383Z,4.17
2022-12-24T00:16:57.312Z,1.10
2022-12-24T00:19:59.665Z,2.10
2022-12-24T00:23:01.589Z,2.10
2022-12-24T00:26:03.754Z,1.27
2022-12-24T00:29:05.728Z,1.13
2022-12-24T00:32:10.472Z,2.43
2022-12-24T00:35:12.308Z,0.87
2022-12-24T00:38:14.226Z,1.07
2022-12-24T00:41:26.313Z,0.80
2022-12-24T00:44:28.850Z,1.77
2022-12-24T00:47:30.746Z,2.50
2022-12-24T00:50:32.908Z,2.23
2022-12-24T00:53:34.792Z,1.20
2022-12-24T00:56:37.084Z,0.87
2022-12-24T00:59:39.010Z,2.23
2022-12-24T01:02:41.093Z,1.03
2022-12-24T01:05:43.181Z,0.70
2022-12-24T01:08:45.369Z,0.80
2022-12-24T01:11:47.341Z,1.17
2022-12-24T01:14:49.372Z,1.50
2022-12-24T01:17:51.330Z,1.67
2022-12-24T01:21:01.754Z,2.37
2022-12-24T01:24:03.704Z,2.23
2022-12-24T01:27:05.747Z,0.87
2022-12-24T01:30:09.409Z,3.60
2022-12-24T01:33:11.491Z,1.00
2022-12-24T01:36:14.279Z,2.03
2022-12-24T01:39:16.295Z,1.07
2022-12-24T01:42:41.460Z,0.80
2022-12-24T01:45:49.348Z,2.40
2022-12-24T01:48:56.804Z,2.60
2022-12-24T01:52:05.691Z,1.87
2022-12-24T01:55:11.350Z,1.47
2022-12-24T01:58:15.431Z,1.40
2022-12-24T02:01:18.383Z,0.70
2022-12-24T02:04:41.585Z,0.50
2022-12-24T02:07:43.789Z,0.80
2022-12-24T02:10:47.524Z,1.53
2022-12-24T02:13:55.443Z,0.60
2022-12-24T02:17:09.136Z,1.40
2022-12-24T02:20:14.014Z,0.53
2022-12-24T02:23:29.562Z,0.67
2022-12-24T02:26:43.859Z,1.23
2022-12-24T02:30:08.295Z,6.03
2022-12-24T02:33:33.462Z,1.67
2022-12-24T02:36:39.150Z,3.47
2022-12-24T02:39:45.623Z,1.50
2022-12-24T02:42:52.369Z,0.73
2022-12-24T02:46:00.548Z,1.03
2022-12-24T02:49:02.727Z,0.40
2022-12-24T02:52:05.013Z,1.53
2022-12-24T02:55:24.091Z,1.77
2022-12-24T02:58:28.946Z,3.20
2022-12-24T03:01:58.886Z,0.90
2022-12-24T03:05:07.796Z,1.57
2022-12-24T03:08:09.698Z,2.93
2022-12-24T03:11:14.635Z,1.67
2022-12-24T03:14:17.081Z,0.83
2022-12-24T03:17:19.823Z,1.80
2022-12-24T03:20:34.082Z,0.77
2022-12-24T03:23:36.590Z,2.30
2022-12-24T03:26:39.503Z,0.60
2022-12-24T03:29:42.132Z,1.13
2022-12-24T03:32:44.282Z,0.70
2022-12-24T03:35:46.489Z,4.70
2022-12-24T03:38:48.455Z,0.97
2022-12-24T03:41:50.298Z,3.27
2022-12-24T03:44:52.737Z,1.37
2022-12-24T03:47:54.607Z,1.37
2022-12-24T03:50:56.712Z,1.70
2022-12-24T03:53:58.668Z,2.17
2022-12-24T03:57:00.678Z,1.83
2022-12-24T04:00:05.237Z,2.30
2022-12-24T04:03:07.384Z,3.23
2022-12-24T04:06:12.258Z,1.97
2022-12-24T04:09:14.245Z,3.03
2022-12-24T04:12:16.182Z,1.13
2022-12-24T04:15:18.445Z,0.70
2022-12-24T04:18:20.358Z,3.40
2022-12-24T04:21:22.409Z,1.57
2022-12-24T04:24:24.344Z,1.20
2022-12-24T04:27:30.284Z,1.67
2022-12-24T04:30:32.782Z,0.70
2022-12-24T04:33:35.216Z,0.90
2022-12-24T04:36:37.213Z,1.80
2022-12-24T04:39:39.876Z,1.80
2022-12-24T04:42:41.775Z,2.73
2022-12-24T04:45:43.881Z,1.40
2022-12-24T04:48:47.882Z,2.00
2022-12-24T04:51:50.290Z,1.40
2022-12-24T04:54:52.220Z,1.77
2022-12-24T04:57:54.226Z,3.77
2022-12-24T05:00:56.297Z,2.83
2022-12-24T05:04:00.007Z,3.93
2022-12-24T05:07:01.929Z,1.17
2022-12-24T05:10:04.489Z,2.10
2022-12-24T05:13:06.437Z,1.27
2022-12-24T05:16:09.410Z,1.10
2022-12-24T05:19:12.068Z,1.97
2022-12-24T05:22:32.812Z,1.80
2022-12-24T05:25:57.595Z,2.13
2022-12-24T05:29:00.916Z,0.87
2022-12-24T05:32:02.934Z,1.43
2022-12-24T05:35:05.201Z,4.30
2022-12-24T05:38:07.086Z,2.30
2022-12-24T05:41:09.985Z,0.90
2022-12-24T05:44:12.097Z,2.27
2022-12-24T05:47:13.988Z,0.90
2022-12-24T05:50:15.963Z,1.37
2022-12-24T05:53:17.871Z,4.17
2022-12-24T05:56:22.074Z,1.93
2022-12-24T05:59:23.975Z,2.53
2022-12-24T06:02:26.042Z,1.03
2022-12-24T06:05:28.022Z,5.43
2022-12-24T06:08:30.867Z,1.60
2022-12-24T06:11:32.855Z,3.40
2022-12-24T06:14:34.893Z,3.03
2022-12-24T06:17:37.487Z,1.67
2022-12-24T06:20:39.399Z,1.93
2022-12-24T06:23:43.558Z,1.17
2022-12-24T06:26:45.587Z,3.73
2022-12-24T06:29:47.532Z,1.83
2022-12-24T06:32:49.503Z,1.00
2022-12-24T06:35:51.395Z,0.70
2022-12-24T06:38:54.576Z,2.93
2022-12-24T06:41:56.551Z,1.10
2022-12-24T06:45:02.299Z,2.80
2022-12-24T06:48:09.727Z,0.90
2022-12-24T06:51:12.868Z,0.93
2022-12-24T06:54:14.808Z,0.70
2022-12-24T06:57:16.766Z,1.37
2022-12-24T07:00:19.175Z,1.30
2022-12-24T07:03:22.062Z,1.40
2022-12-24T07:06:29.107Z,1.03
2022-12-24T07:09:32.011Z,2.37
2022-12-24T07:12:34.273Z,0.73
2022-12-24T07:15:36.308Z,1.13
2022-12-24T07:18:38.294Z,1.70
2022-12-24T07:21:40.554Z,5.80
2022-12-24T07:24:42.533Z,1.00
2022-12-24T07:27:44.942Z,1.60
2022-12-24T07:30:48.646Z,0.87
2022-12-24T07:33:51.141Z,1.57
2022-12-24T07:36:53.155Z,1.93
2022-12-24T07:39:55.985Z,2.27
2022-12-24T07:42:57.884Z,3.00
2022-12-24T07:46:00.692Z,4.03
2022-12-24T07:49:02.625Z,3.07
2022-12-24T07:52:04.933Z,1.53
2022-12-24T07:55:07.281Z,1.93
2022-12-24T07:58:11.350Z,5.60
2022-12-24T08:01:13.401Z,1.00
2022-12-24T08:04:15.644Z,1.00
2022-12-24T08:07:17.921Z,0.57
2022-12-24T08:10:19.895Z,2.53
2022-12-24T08:13:21.912Z,0.90
2022-12-24T08:16:23.991Z,1.17
2022-12-24T08:19:25.905Z,1.63
2022-12-24T08:22:27.879Z,0.23
2022-12-24T08:25:29.913Z,0.50
2022-12-24T08:28:32.382Z,1.90
2022-12-24T08:31:36.849Z,3.63
2022-12-24T08:34:38.864Z,1.17
2022-12-24T08:37:40.699Z,0.90
2022-12-24T08:40:43.427Z,1.27
2022-12-24T08:43:45.703Z,1.90
2022-12-24T08:46:47.619Z,0.40
2022-12-24T08:49:49.555Z,0.50
2022-12-24T08:52:51.525Z,0.60
2022-12-24T08:55:56.247Z,0.50
2022-12-24T08:58:58.722Z,2.10
2022-12-24T09:02:00.773Z,2.83
2022-12-24T09:05:03.174Z,1.33
2022-12-24T09:08:05.321Z,0.20
2022-12-24T09:11:09.806Z,0.50
2022-12-24T09:14:12.228Z,0.93
2022-12-24T09:17:14.169Z,0.30
2022-12-24T09:20:16.146Z,0.40
2022-12-24T09:23:18.174Z,0.60
2022-12-24T09:26:23.264Z,1.13
2022-12-24T09:29:26.028Z,0.60
2022-12-24T09:32:28.054Z,0.80
2022-12-24T09:35:31.005Z,1.20
2022-12-24T09:38:33.881Z,0.63
2022-12-24T09:41:48.247Z,12.97
2022-12-24T09:45:01.618Z,3.70
2022-12-24T09:48:13.052Z,0.70
2022-12-24T09:51:28.992Z,1.47
2022-12-24T09:54:36.169Z,3.27
2022-12-24T09:57:39.603Z,4.00
2022-12-24T10:00:49.575Z,0.53
2022-12-24T10:03:52.078Z,0.40
2022-12-24T10:07:33.273Z,2.60
2022-12-24T10:10:43.602Z,2.63
2022-12-24T10:14:03.632Z,3.33
2022-12-24T10:17:17.265Z,1.70
2022-12-24T10:20:54.439Z,0.93
2022-12-24T10:24:08.119Z,1.43
2022-12-24T10:27:15.611Z,7.77
2022-12-24T10:30:20.011Z,2.83
2022-12-24T10:33:47.107Z,6.27
2022-12-24T10:36:49.114Z,0.93
2022-12-24T10:39:52.099Z,1.40
2022-12-24T10:42:54.056Z,0.97
2022-12-24T10:45:59.809Z,1.30
2022-12-24T10:49:13.105Z,2.20
2022-12-24T10:52:17.895Z,1.37
2022-12-24T10:55:19.767Z,2.10
2022-12-24T10:58:23.758Z,1.77
2022-12-24T11:01:46.225Z,1.33
2022-12-24T11:04:50.949Z,0.97
2022-12-24T11:08:14.230Z,2.20
2022-12-24T11:11:19.552Z,1.40
2022-12-24T11:14:22.428Z,1.40
2022-12-24T11:17:24.784Z,3.07
2022-12-24T11:20:31.026Z,2.53
2022-12-24T11:23:33.476Z,1.97
2022-12-24T11:26:36.034Z,3.07
2022-12-24T11:29:38.453Z,2.27
2022-12-24T11:32:41.313Z,2.00
2022-12-24T11:35:58.610Z,1.83
2022-12-24T11:39:00.817Z,2.57
2022-12-24T11:42:02.834Z,2.83
2022-12-24T11:45:24.472Z,2.07
2022-12-24T11:48:35.043Z,1.80
2022-12-24T11:51:37.565Z,1.93
2022-12-24T11:54:59.523Z,3.37
2022-12-24T11:58:25.186Z,2.30
2022-12-24T12:01:44.895Z,2.83
2022-12-24T12:04:59.459Z,2.43
2022-12-24T12:08:21.945Z,1.43
2022-12-24T12:11:25.592Z,3.13
2022-12-24T12:14:38.033Z,3.23
2022-12-24T12:18:02.745Z,2.20
2022-12-24T12:21:08.129Z,1.50
2022-12-24T12:24:31.872Z,4.43
2022-12-24T12:27:40.391Z,1.40
2022-12-24T12:30:43.998Z,1.23
2022-12-24T12:33:56.195Z,2.13
2022-12-24T12:37:03.357Z,1.40
2022-12-24T12:40:18.164Z,1.97
2022-12-24T12:43:43.401Z,0.80
2022-12-24T12:47:37.233Z,2.57
2022-12-24T12:50:55.004Z,1.87
2022-12-24T12:54:02.931Z,4.53
2022-12-24T12:57:14.468Z,1.70
2022-12-24T13:00:19.027Z,5.53
2022-12-24T13:03:32.872Z,3.23
2022-12-24T13:06:59.379Z,2.33
2022-12-24T13:10:27.008Z,3.47
2022-12-24T13:14:00.381Z,2.43
2022-12-24T13:17:17.151Z,3.50
2022-12-24T13:20:26.414Z,2.03
2022-12-24T13:23:28.650Z,2.20
2022-12-24T13:26:30.628Z,3.50
2022-12-24T13:29:35.158Z,1.80
2022-12-24T13:32:56.664Z,2.50
2022-12-24T13:36:01.123Z,7.73
2022-12-24T13:39:03.104Z,4.43
2022-12-24T13:42:05.128Z,9.10
2022-12-24T13:45:32.769Z,5.40
2022-12-24T13:48:35.118Z,7.93
2022-12-24T13:51:37.091Z,5.57
2022-12-24T13:54:43.575Z,7.53
2022-12-24T13:58:03.474Z,6.93
2022-12-24T14:01:09.961Z,11.07
2022-12-24T14:04:28.076Z,4.37
2022-12-24T14:07:30.431Z,7.07
2022-12-24T14:10:39.230Z,77.67
2022-12-24T14:13:41.097Z,126.40
2022-12-24T14:16:47.271Z,80.10
2022-12-24T14:19:53.244Z,28.50
2022-12-24T14:22:57.374Z,14.07
2022-12-24T14:26:01.465Z,9.83
2022-12-24T14:29:21.265Z,8.90
2022-12-24T14:32:35.032Z,7.43
2022-12-24T14:35:38.920Z,3.87
2022-12-24T14:38:42.951Z,7.20
2022-12-24T14:41:51.555Z,7.90
2022-12-24T14:45:20.024Z,3.10
2022-12-24T14:48:25.616Z,5.03
2022-12-24T14:51:38.321Z,6.80
2022-12-24T14:54:43.787Z,5.67
2022-12-24T14:57:45.713Z,6.40
2022-12-24T15:00:47.809Z,4.13
2022-12-24T15:04:06.273Z,2.70
2022-12-24T15:07:12.431Z,8.10
2022-12-24T15:10:38.924Z,2.93
2022-12-24T15:13:43.588Z,5.93
2022-12-24T15:17:05.884Z,3.73
2022-12-24T15:20:18.527Z,6.07
2022-12-24T15:23:23.037Z,5.17
2022-12-24T15:26:30.482Z,5.87
2022-12-24T15:29:33.753Z,7.77
2022-12-24T15:32:38.137Z,9.67
2022-12-24T15:35:42.992Z,8.50
2022-12-24T15:38:47.609Z,10.43
2022-12-24T15:42:13.344Z,8.90
2022-12-24T15:45:28.224Z,5.73
2022-12-24T15:48:31.576Z,7.57
2022-12-24T15:51:40.114Z,5.90
2022-12-24T15:54:55.487Z,4.53
2022-12-24T15:57:59.925Z,6.33
2022-12-24T16:01:14.070Z,3.87
2022-12-24T16:04:22.630Z,4.43
2022-12-24T16:07:26.278Z,2.60
2022-12-24T16:10:28.841Z,4.07
2022-12-24T16:13:32.364Z,7.03
2022-12-24T16:16:38.110Z,18.13
2022-12-24T16:19:40.849Z,15.37
2022-12-24T16:22:46.741Z,11.20
2022-12-24T16:25:48.707Z,10.13
2022-12-24T16:28:50.620Z,6.03
2022-12-24T16:31:57.443Z,4.10
2022-12-24T16:35:00.187Z,4.17
2022-12-24T16:38:02.864Z,3.33
2022-12-24T16:41:05.003Z,2.77
2022-12-24T16:44:06.856Z,2.40
2022-12-24T16:47:20.874Z,4.10
2022-12-24T16:50:22.754Z,3.10
2022-12-24T16:53:24.910Z,2.83
2022-12-24T16:56:26.884Z,5.87
2022-12-24T16:59:28.872Z,3.03
2022-12-24T17:02:31.123Z,2.50
2022-12-24T17:05:33.810Z,5.47
2022-12-24T17:08:35.807Z,4.93
2022-12-24T17:11:38.381Z,1.80
2022-12-24T17:14:40.811Z,1.50
2022-12-24T17:17:42.819Z,2.03
2022-12-24T17:20:44.734Z,3.63
2022-12-24T17:23:47.047Z,2.80
2022-12-24T17:26:48.950Z,1.87
2022-12-24T17:29:51.046Z,1.57
2022-12-24T17:32:52.922Z,3.37
2022-12-24T17:35:54.871Z,6.67
2022-12-24T17:38:56.835Z,2.80
2022-12-24T17:41:59.096Z,2.33
2022-12-24T17:45:01.247Z,2.50
2022-12-24T17:48:03.265Z,1.73
2022-12-24T17:51:07.205Z,1.80
2022-12-24T17:54:09.935Z,3.27
2022-12-24T17:57:11.856Z,1.73
2022-12-24T18:00:15.716Z,2.57
2022-12-24T18:03:17.689Z,1.80
2022-12-24T18:06:21.305Z,3.40
2022-12-24T18:09:23.109Z,1.63
2022-12-24T18:12:25.029Z,2.60
2022-12-24T18:15:26.982Z,3.87
2022-12-24T18:18:28.943Z,2.90
2022-12-24T18:21:33.231Z,2.83
2022-12-24T18:24:35.183Z,3.53
2022-12-24T18:27:37.111Z,4.00
2022-12-24T18:30:39.005Z,2.23
2022-12-24T18:33:41.117Z,6.60
2022-12-24T18:36:43.256Z,5.87
2022-12-24T18:39:45.326Z,3.17
2022-12-24T18:42:47.812Z,3.20
2022-12-24T18:45:50.041Z,12.43
2022-12-24T18:48:52.880Z,7.67
2022-12-24T18:51:54.814Z,5.63
2022-12-24T18:54:57.696Z,29.27
2022-12-24T18:57:59.652Z,11.90
2022-12-24T19:01:02.053Z,52.73
2022-12-24T19:04:04.524Z,5.03
2022-12-24T19:07:06.661Z,3.07
2022-12-24T19:10:09.180Z,2.63
2022-12-24T19:13:11.624Z,3.80
2022-12-24T19:16:14.644Z,6.07
2022-12-24T19:19:16.755Z,4.43
2022-12-24T19:22:18.678Z,2.20
2022-12-24T19:25:20.665Z,3.50
2022-12-24T19:28:25.835Z,4.47
2022-12-24T19:31:28.313Z,6.83
2022-12-24T19:34:30.435Z,7.50
2022-12-24T19:37:32.368Z,7.60
2022-12-24T19:40:37.453Z,2.93
2022-12-24T19:43:41.891Z,4.70
2022-12-24T19:46:44.266Z,3.83
2022-12-24T19:49:46.211Z,4.10
2022-12-24T19:52:48.729Z,2.30
2022-12-24T19:55:50.731Z,2.90
2022-12-24T19:58:53.313Z,1.93
2022-12-24T20:01:56.512Z,2.00
2022-12-24T20:04:58.563Z,2.57
2022-12-24T20:08:00.501Z,3.17
2022-12-24T20:11:07.839Z,3.53
2022-12-24T20:14:11.979Z,3.97
2022-12-24T20:17:15.140Z,2.37
2022-12-24T20:20:17.197Z,1.80
2022-12-24T20:23:19.160Z,5.90
2022-12-24T20:26:23.832Z,1.93
2022-12-24T20:29:25.770Z,1.67
2022-12-24T20:32:29.622Z,0.80
2022-12-24T20:35:35.048Z,5.27
2022-12-24T20:38:37.993Z,3.60
2022-12-24T20:41:39.970Z,2.53
2022-12-24T20:44:41.992Z,1.70
2022-12-24T20:47:45.413Z,2.43
2022-12-24T20:50:47.692Z,2.00
2022-12-24T20:53:49.963Z,2.13
2022-12-24T20:56:57.886Z,2.10
2022-12-24T21:00:02.250Z,2.60
2022-12-24T21:03:05.321Z,2.47
2022-12-24T21:06:07.695Z,3.70
2022-12-24T21:09:10.698Z,2.57
2022-12-24T21:12:31.469Z,2.23
2022-12-24T21:15:37.065Z,2.70
2022-12-24T21:18:39.087Z,2.47
2022-12-24T21:21:41.979Z,2.07
2022-12-24T21:24:44.049Z,2.47
2022-12-24T21:27:45.913Z,3.23
2022-12-24T21:30:48.458Z,3.13
2022-12-24T21:33:50.453Z,6.83
2022-12-24T21:36:52.426Z,4.40
2022-12-24T21:39:54.850Z,3.93
2022-12-24T21:42:57.393Z,2.17
2022-12-24T21:46:00.026Z,2.47
2022-12-24T21:49:21.736Z,3.03
2022-12-24T21:52:23.655Z,3.43
2022-12-24T21:55:25.852Z,1.87
2022-12-24T21:58:27.737Z,2.53
2022-12-24T22:01:29.888Z,2.40
2022-12-24T22:04:33.674Z,5.47
2022-12-24T22:07:54.132Z,3.30
2022-12-24T22:11:27.975Z,3.37
2022-12-24T22:14:29.853Z,2.43
2022-12-24T22:17:31.700Z,2.00
2022-12-24T22:20:36.219Z,1.60
2022-12-24T22:23:42.348Z,2.57
2022-12-24T22:26:45.505Z,1.60
2022-12-24T22:29:47.471Z,5.33
2022-12-24T22:32:49.524Z,6.83
2022-12-24T22:35:51.483Z,2.40
2022-12-24T22:38:55.222Z,2.40
2022-12-24T22:41:58.429Z,2.10
2022-12-24T22:45:01.078Z,4.53
2022-12-24T22:48:05.218Z,1.60
2022-12-24T22:51:13.341Z,3.97
2022-12-24T22:54:15.263Z,2.37
2022-12-24T22:57:17.397Z,2.93
2022-12-24T23:00:41.337Z,3.70
2022-12-24T23:03:43.375Z,2.70
2022-12-24T23:06:45.362Z,2.23
2022-12-24T23:09:47.321Z,5.27
2022-12-24T23:13:14.404Z,4.87
2022-12-24T23:16:17.216Z,2.83
2022-12-24T23:19:19.222Z,2.30
2022-12-24T23:22:21.133Z,1.90
2022-12-24T23:25:23.317Z,2.57
2022-12-24T23:28:25.311Z,3.73
2022-12-24T23:31:27.301Z,1.77
2022-12-24T23:34:29.644Z,4.27
2022-12-24T23:37:35.451Z,3.07
2022-12-24T23:40:37.582Z,3.77
2022-12-24T23:43:39.555Z,3.13
2022-12-24T23:46:41.865Z,4.83
2022-12-24T23:49:43.800Z,1.43
2022-12-24T23:52:45.770Z,6.17
2022-12-24T23:55:47.695Z,3.23
2022-12-24T23:58:49.750Z,1.50
